MSC Poh Lin — H8FC — position and weather

sailwx.info

Track history (hours):
 
Tides and Currents Weather Stations Pressure Air Temp Water Temp Dewpoint Dewpoint Depression Visibility Wind Speed Wind Dir Waves Ship Positions

MSC Poh Lin

Last reported at 2017-May-13 14:37 UTC. Time now 2017-May-25 08:51 UTC.
Position N 01°54' E 102°21'.
Warning: this ship's position is 11 days out of date.

Length 294 m; draft 13.8 m.

Type: Ship (hazmat cat A). MMSI: 357405000.

Date/timePositionNaut miles runAvg speedWind from/ knotsBaromVisibWave heightAir tempDewpointWater temp
2017-May-13 14:37N 01°54' E 102°21'216.7
2017-May-13 14:30N 01°53' E 102°23'1816.6
2017-May-13 13:27N 01°46' E 102°39'5118.1
2017-May-13 10:40N 01°17' E 103°21'519.4
2017-May-13 10:25N 01°15' E 103°25'819.1
2017-May-13 09:59N 01°12' E 103°32'715.3
2017-May-13 09:31N 01°13' E 103°40'510.9
2017-May-13 09:01N 01°16' E 103°44'2 3.7
2017-May-13 08:30N 01°16' E 103°46'0 0.1
2017-May-13 07:55N 01°16' E 103°46'0 0.0
2017-May-13 07:28N 01°16' E 103°46'0 0.0
2017-May-13 06:58N 01°16' E 103°46'0 0.0
2017-May-13 06:28N 01°16' E 103°46'0 0.0
2017-May-13 05:58N 01°16' E 103°46'0 0.0
2017-May-13 05:28N 01°16' E 103°46'0 0.0
2017-May-13 04:49N 01°16' E 103°46'0 0.0
2017-May-13 04:19N 01°16' E 103°46'0 0.0
2017-May-13 03:58N 01°16' E 103°46'0 0.0
2017-May-13 03:28N 01°16' E 103°46'0 0.0
2017-May-13 02:58N 01°16' E 103°46'0 0.0
2017-May-13 02:28N 01°16' E 103°46'0 0.0
2017-May-13 01:58N 01°16' E 103°46'0 0.0
2017-May-13 01:28N 01°16' E 103°46'0 0.0
2017-May-13 00:55N 01°16' E 103°46'0 0.0
2017-May-13 00:28N 01°16' E 103°46'0 0.0
2017-May-12 23:58N 01°16' E 103°46'0 0.0
2017-May-12 23:28N 01°16' E 103°46'0 0.0
2017-May-12 22:58N 01°16' E 103°46'0 0.0
2017-May-12 22:28N 01°16' E 103°46'0 0.0
2017-May-12 21:58N 01°16' E 103°46'0 0.0
2017-May-12 21:28N 01°16' E 103°46'0 0.0
2017-May-12 20:58N 01°16' E 103°46'0 0.0
2017-May-12 20:25N 01°16' E 103°46'0 0.0
2017-May-12 19:58N 01°16' E 103°46'0 0.0
2017-May-12 19:28N 01°16' E 103°46'0 0.0
2017-May-12 18:58N 01°16' E 103°46'0 0.0
2017-May-12 18:28N 01°16' E 103°46'0 0.0
2017-May-12 17:49N 01°16' E 103°46'0 0.0
2017-May-12 17:25N 01°16' E 103°46'0 0.0
2017-May-12 16:58N 01°16' E 103°46'0 0.0
2017-May-12 16:28N 01°16' E 103°46'0 0.0
2017-May-12 15:55N 01°16' E 103°46'0 0.0
2017-May-12 15:25N 01°16' E 103°46'0 0.0
2017-May-12 14:58N 01°16' E 103°46'0 0.0
2017-May-12 13:58N 01°16' E 103°46'0 0.0
2017-May-12 13:28N 01°16' E 103°46'0 0.0
2017-May-12 12:58N 01°16' E 103°46'0 0.0
2017-May-12 12:25N 01°16' E 103°46'0 0.0
2017-May-12 11:58N 01°16' E 103°46'0 0.0
2017-May-12 11:28N 01°16' E 103°46'0 0.0
2017-May-12 10:58N 01°16' E 103°46'0 0.0
2017-May-12 10:28N 01°16' E 103°46'0 0.0
2017-May-12 09:58N 01°16' E 103°46'0 0.0
2017-May-12 09:28N 01°16' E 103°46'0 0.0
2017-May-12 08:52N 01°16' E 103°46'0 0.0
2017-May-12 08:25N 01°16' E 103°46'0 0.0
2017-May-12 07:58N 01°16' E 103°46'0 0.0
2017-May-12 07:25N 01°16' E 103°46'0 0.0
2017-May-12 06:58N 01°16' E 103°46'0 0.0
2017-May-12 06:28N 01°16' E 103°46'0 0.0
2017-May-12 05:58N 01°16' E 103°46'0 0.0
2017-May-12 05:25N 01°16' E 103°46'0 0.5
2017-May-12 05:00N 01°16' E 103°46'1 2.0
2017-May-12 04:30N 01°15' E 103°47'3 5.0
2017-May-12 04:00N 01°13' E 103°48'5 9.2
2017-May-12 03:31N 01°13' E 103°53'3 5.2
2017-May-12 03:00N 01°14' E 103°55'3 6.1
2017-May-12 02:31N 01°15' E 103°58'3 5.5
2017-May-12 02:00N 01°16' E 104°01'3 6.5
2017-May-12 01:30N 01°16' E 104°04'  
Track history (hours):
 
Tides and Currents Weather Stations Pressure Air Temp Water Temp Dewpoint Dewpoint Depression Visibility Wind Speed Wind Dir Waves Ship Positions

MSC Poh Lin

Last reported at 2017-May-13 14:37 UTC. Time now 2017-May-25 08:51 UTC.
Position N 01°54' E 102°21'.
Warning: this ship's position is 11 days out of date.

Length 294 m; draft 13.8 m.

Type: Ship (hazmat cat A). MMSI: 357405000.

Date/timePositionNaut miles runAvg speedWind from/ knotsBaromVisibWave heightAir tempDewpointWater temp
2017-May-13 14:37N 01°54' E 102°21'216.7
2017-May-13 14:30N 01°53' E 102°23'1816.6
2017-May-13 13:27N 01°46' E 102°39'5118.1
2017-May-13 10:40N 01°17' E 103°21'519.4
2017-May-13 10:25N 01°15' E 103°25'819.1
2017-May-13 09:59N 01°12' E 103°32'715.3
2017-May-13 09:31N 01°13' E 103°40'510.9
2017-May-13 09:01N 01°16' E 103°44'2 3.7
2017-May-13 08:30N 01°16' E 103°46'0 0.1
2017-May-13 07:55N 01°16' E 103°46'0 0.0
2017-May-13 07:28N 01°16' E 103°46'0 0.0
2017-May-13 06:58N 01°16' E 103°46'0 0.0
2017-May-13 06:28N 01°16' E 103°46'0 0.0
2017-May-13 05:58N 01°16' E 103°46'0 0.0
2017-May-13 05:28N 01°16' E 103°46'0 0.0
2017-May-13 04:49N 01°16' E 103°46'0 0.0
2017-May-13 04:19N 01°16' E 103°46'0 0.0
2017-May-13 03:58N 01°16' E 103°46'0 0.0
2017-May-13 03:28N 01°16' E 103°46'0 0.0
2017-May-13 02:58N 01°16' E 103°46'0 0.0
2017-May-13 02:28N 01°16' E 103°46'0 0.0
2017-May-13 01:58N 01°16' E 103°46'0 0.0
2017-May-13 01:28N 01°16' E 103°46'0 0.0
2017-May-13 00:55N 01°16' E 103°46'0 0.0
2017-May-13 00:28N 01°16' E 103°46'0 0.0
2017-May-12 23:58N 01°16' E 103°46'0 0.0
2017-May-12 23:28N 01°16' E 103°46'0 0.0
2017-May-12 22:58N 01°16' E 103°46'0 0.0
2017-May-12 22:28N 01°16' E 103°46'0 0.0
2017-May-12 21:58N 01°16' E 103°46'0 0.0
2017-May-12 21:28N 01°16' E 103°46'0 0.0
2017-May-12 20:58N 01°16' E 103°46'0 0.0
2017-May-12 20:25N 01°16' E 103°46'0 0.0
2017-May-12 19:58N 01°16' E 103°46'0 0.0
2017-May-12 19:28N 01°16' E 103°46'0 0.0
2017-May-12 18:58N 01°16' E 103°46'0 0.0
2017-May-12 18:28N 01°16' E 103°46'0 0.0
2017-May-12 17:49N 01°16' E 103°46'0 0.0
2017-May-12 17:25N 01°16' E 103°46'0 0.0
2017-May-12 16:58N 01°16' E 103°46'0 0.0
2017-May-12 16:28N 01°16' E 103°46'0 0.0
2017-May-12 15:55N 01°16' E 103°46'0 0.0
2017-May-12 15:25N 01°16' E 103°46'0 0.0
2017-May-12 14:58N 01°16' E 103°46'0 0.0
2017-May-12 13:58N 01°16' E 103°46'0 0.0
2017-May-12 13:28N 01°16' E 103°46'0 0.0
2017-May-12 12:58N 01°16' E 103°46'0 0.0
2017-May-12 12:25N 01°16' E 103°46'0 0.0
2017-May-12 11:58N 01°16' E 103°46'0 0.0
2017-May-12 11:28N 01°16' E 103°46'0 0.0
2017-May-12 10:58N 01°16' E 103°46'0 0.0
2017-May-12 10:28N 01°16' E 103°46'0 0.0
2017-May-12 09:58N 01°16' E 103°46'0 0.0
2017-May-12 09:28N 01°16' E 103°46'0 0.0
2017-May-12 08:52N 01°16' E 103°46'0 0.0
2017-May-12 08:25N 01°16' E 103°46'0 0.0
2017-May-12 07:58N 01°16' E 103°46'0 0.0
2017-May-12 07:25N 01°16' E 103°46'0 0.0
2017-May-12 06:58N 01°16' E 103°46'0 0.0
2017-May-12 06:28N 01°16' E 103°46'0 0.0
2017-May-12 05:58N 01°16' E 103°46'0 0.0
2017-May-12 05:25N 01°16' E 103°46'0 0.5
2017-May-12 05:00N 01°16' E 103°46'1 2.0
2017-May-12 04:30N 01°15' E 103°47'3 5.0
2017-May-12 04:00N 01°13' E 103°48'5 9.2
2017-May-12 03:31N 01°13' E 103°53'3 5.2
2017-May-12 03:00N 01°14' E 103°55'3 6.1
2017-May-12 02:31N 01°15' E 103°58'3 5.5
2017-May-12 02:00N 01°16' E 104°01'3 6.5
2017-May-12 01:30N 01°16' E 104°04'  

Dump ship's entire track history